Time;durP1;ratioP1;P1;durP2;ratioP2;P2;SDS_P1;SDS_P2;PMS_P1;PMS_P2;Temp;Humidity;BMP_temperature;BMP_pressure;BME280_temperature;BME280_humidity;BME280_pressure;Samples;Min_cycle;Max_cycle;Signal;HPM_P1;HPM_P2
2022/09/02 00:02:17;;;;;;;0.30;0.30;;;;;;;20.62;37.89;101098.41;5114534;28;20111;-80
2022/09/02 00:04:48;;;;;;;0.98;0.43;;;;;;;20.63;37.73;101101.97;5135391;28;20054;-81
2022/09/02 00:07:19;;;;;;;0.20;0.20;;;;;;;20.62;37.97;101094.91;5166478;28;20053;-81
2022/09/02 00:09:50;;;;;;;0.20;0.20;;;;;;;20.59;37.91;101098.63;5160341;28;20058;-81
2022/09/02 00:12:20;;;;;;;0.30;0.30;;;;;;;20.58;37.73;101091.59;5145674;28;20069;-80
2022/09/02 00:14:52;;;;;;;0.20;0.20;;;;;;;20.59;37.54;101091.47;5131011;28;20027;-81
2022/09/02 00:17:22;;;;;;;1.40;0.30;;;;;;;20.56;37.87;101085.50;5163164;28;20039;-81
2022/09/02 00:19:55;;;;;;;0.20;0.20;;;;;;;20.57;37.89;101088.09;5187269;28;20743;-80
2022/09/02 00:22:25;;;;;;;0.90;0.50;;;;;;;20.56;38.11;101082.81;5143049;28;20090;-82
2022/09/02 00:24:58;;;;;;;0.30;0.30;;;;;;;20.60;37.69;101081.69;5168387;28;20273;-80
2022/09/02 00:27:28;;;;;;;0.10;0.10;;;;;;;20.51;37.98;101079.63;5131564;28;20047;-82
2022/09/02 00:29:59;;;;;;;0.20;0.20;;;;;;;20.54;37.75;101076.72;5127715;28;20042;-81
2022/09/02 00:32:30;;;;;;;0.20;0.20;;;;;;;20.53;37.89;101077.72;5134122;28;20036;-81
2022/09/02 00:35:01;;;;;;;0.20;0.20;;;;;;;20.47;38.11;101075.41;5139270;28;20035;-81
2022/09/02 00:37:32;;;;;;;0.85;0.85;;;;;;;20.51;37.77;101079.63;5121699;28;20130;-82
2022/09/02 00:40:11;;;;;;;0.30;0.30;;;;;;;20.41;38.14;101074.00;5105308;28;20457;-81
2022/09/02 00:42:42;;;;;;;0.40;0.40;;;;;;;20.40;38.25;101073.13;5151416;28;20047;-81
2022/09/02 00:45:13;;;;;;;0.50;0.50;;;;;;;20.33;38.27;101071.81;5121467;28;20055;-81
2022/09/02 00:47:44;;;;;;;0.40;0.40;;;;;;;20.43;37.68;101070.28;5154888;28;20046;-82
2022/09/02 00:50:25;;;;;;;1.00;0.95;;;;;;;20.40;38.00;101074.97;5125688;28;20035;-80
2022/09/02 00:53:09;;;;;;;0.28;0.28;;;;;;;20.38;38.06;101080.38;5141755;28;20101;-82
2022/09/02 00:55:43;;;;;;;;;;;;;;;20.32;38.55;101066.59;5150865;28;20378;-81
2022/09/02 00:58:29;;;;;;;0.20;0.20;;;;;;;20.37;38.04;101067.16;5157300;28;19989;-81
2022/09/02 01:01:00;;;;;;;0.28;0.28;;;;;;;20.36;37.88;101070.75;5135527;28;20157;-82
2022/09/02 01:03:32;;;;;;;0.60;0.47;;;;;;;20.41;38.00;101069.53;5139835;28;20381;-82
2022/09/02 01:06:07;;;;;;;0.20;0.20;;;;;;;20.27;38.16;101066.88;5188803;28;20027;-82
2022/09/02 01:08:55;;;;;;;0.30;0.30;;;;;;;20.24;38.32;101072.38;5130809;28;20441;-81
2022/09/02 01:11:35;;;;;;;0.38;0.38;;;;;;;20.28;38.24;101068.59;5128614;28;20391;-82
2022/09/02 01:14:11;;;;;;;0.30;0.30;;;;;;;20.24;38.26;101069.72;5097119;29;20047;-82
2022/09/02 01:16:46;;;;;;;0.32;0.32;;;;;;;20.18;38.68;101062.13;5128698;28;20037;-80
2022/09/02 01:19:28;;;;;;;0.28;0.28;;;;;;;20.19;38.35;101071.84;5109066;28;20031;-81
2022/09/02 01:21:59;;;;;;;0.20;0.20;;;;;;;20.17;38.30;101066.56;5140396;28;20039;-82
2022/09/02 01:24:33;;;;;;;4.05;0.80;;;;;;;20.13;38.38;101071.25;5145784;28;20099;-81
2022/09/02 01:27:07;;;;;;;3.90;0.63;;;;;;;20.12;38.58;101071.34;5162490;28;20046;-80
2022/09/02 01:29:38;;;;;;;0.30;0.30;;;;;;;20.10;38.35;101075.91;5156799;28;20039;-81
2022/09/02 01:32:09;;;;;;;0.20;0.20;;;;;;;20.02;38.68;101065.75;5149425;28;20043;-81
2022/09/02 01:34:39;;;;;;;0.32;0.32;;;;;;;20.01;38.75;101063.16;5177101;28;20038;-81
2022/09/02 01:37:10;;;;;;;0.28;0.28;;;;;;;20.02;38.83;101064.88;5174657;28;20112;-82
2022/09/02 01:39:41;;;;;;;0.50;0.50;;;;;;;20.04;38.68;101057.66;5167620;28;20146;-82
2022/09/02 01:42:12;;;;;;;0.40;0.40;;;;;;;19.89;38.99;101054.97;5139874;28;20058;-82
2022/09/02 01:44:43;;;;;;;0.28;0.28;;;;;;;19.97;38.99;101057.16;5171494;28;20034;-83
2022/09/02 01:47:25;;;;;;;0.60;0.57;;;;;;;19.91;38.86;101049.56;5147186;28;20050;-83
2022/09/02 01:49:56;;;;;;;0.40;0.40;;;;;;;19.85;39.49;101050.78;5120965;28;20055;-82
2022/09/02 01:52:28;;;;;;;0.20;0.20;;;;;;;19.82;39.60;101054.47;5108002;28;20043;-82
2022/09/02 01:54:59;;;;;;;0.20;0.20;;;;;;;19.84;39.11;101054.34;5139356;28;20500;-82
2022/09/02 01:57:30;;;;;;;0.10;0.10;;;;;;;19.86;39.28;101046.34;5151071;28;20096;-82
2022/09/02 02:00:03;;;;;;;0.35;0.35;;;;;;;19.84;39.23;101050.84;5151634;28;20034;-82
2022/09/02 02:02:33;;;;;;;0.20;0.20;;;;;;;19.80;39.27;101048.38;5108032;28;20086;-82
2022/09/02 02:05:04;;;;;;;0.20;0.20;;;;;;;19.81;39.21;101054.56;5161090;28;20023;-83
2022/09/02 02:07:36;;;;;;;0.20;0.20;;;;;;;19.83;39.26;101047.34;5103574;28;20549;-82
2022/09/02 02:10:09;;;;;;;0.65;0.65;;;;;;;19.71;40.05;101059.56;5149538;28;20034;-81
2022/09/02 02:12:40;;;;;;;0.30;0.30;;;;;;;19.61;39.95;101058.44;5148166;28;20473;-81
2022/09/02 02:15:15;;;;;;;0.40;0.40;;;;;;;19.67;39.42;101053.56;5122336;28;20055;-82
2022/09/02 02:17:46;;;;;;;0.20;0.20;;;;;;;19.73;39.30;101057.69;5132926;28;20589;-81
2022/09/02 02:20:19;;;;;;;0.40;0.40;;;;;;;19.71;39.43;101064.88;5120161;28;20046;-81
2022/09/02 02:22:50;;;;;;;0.20;0.20;;;;;;;19.60;39.54;101056.72;5146281;28;20046;-82
2022/09/02 02:25:20;;;;;;;0.30;0.30;;;;;;;19.67;39.36;101053.56;5143124;28;20026;-82
2022/09/02 02:27:51;;;;;;;0.30;0.30;;;;;;;19.77;39.01;101059.22;5148923;28;20515;-82
2022/09/02 02:30:22;;;;;;;0.20;0.20;;;;;;;19.78;39.32;101057.41;5129716;28;20118;-82
2022/09/02 02:32:53;;;;;;;0.82;0.50;;;;;;;19.55;39.83;101064.09;5130319;28;20042;-82
2022/09/02 02:35:24;;;;;;;0.60;0.60;;;;;;;19.55;39.89;101061.44;5137270;28;20023;-82
2022/09/02 02:37:55;;;;;;;0.40;0.40;;;;;;;19.61;39.45;101063.75;5124245;28;20042;-82
2022/09/02 02:40:28;;;;;;;0.88;0.88;;;;;;;19.57;39.60;101055.09;5133492;28;20413;-81
2022/09/02 02:42:59;;;;;;;0.20;0.20;;;;;;;19.61;39.39;101058.44;5147341;28;20046;-82
2022/09/02 02:45:29;;;;;;;0.30;0.30;;;;;;;19.57;39.67;101059.53;5147275;28;20042;-81
2022/09/02 02:48:03;;;;;;;0.20;0.20;;;;;;;19.55;40.31;101050.78;5147166;28;20043;-82
2022/09/02 02:50:33;;;;;;;0.38;0.38;;;;;;;19.52;39.77;101053.66;5132259;28;20049;-82
2022/09/02 02:53:04;;;;;;;0.30;0.30;;;;;;;19.53;39.74;101055.38;5106489;28;20046;-82
2022/09/02 02:55:35;;;;;;;0.20;0.20;;;;;;;19.54;39.57;101049.09;5124532;28;20047;-82
2022/09/02 02:58:06;;;;;;;0.50;0.50;;;;;;;19.48;39.91;101048.50;5121590;28;20047;-82
2022/09/02 03:00:37;;;;;;;0.20;0.20;;;;;;;19.42;40.04;101048.88;5147568;28;20035;-82
2022/09/02 03:03:33;;;;;;;0.20;0.20;;;;;;;19.46;39.79;101045.06;5112816;28;20039;-82
2022/09/02 03:06:08;;;;;;;0.20;0.20;;;;;;;19.47;39.78;101038.81;5119962;29;20623;-81
2022/09/02 03:08:52;;;;;;;0.30;0.30;;;;;;;19.41;39.80;101043.66;5133037;28;20140;-82
2022/09/02 03:11:29;;;;;;;0.20;0.20;;;;;;;19.44;39.60;101041.66;5148441;28;20117;-82
2022/09/02 03:13:59;;;;;;;0.30;0.30;;;;;;;19.37;40.12;101048.31;5117885;28;20916;-82
2022/09/02 03:16:30;;;;;;;0.20;0.20;;;;;;;19.31;40.31;101041.53;5143071;28;20113;-82
2022/09/02 03:19:04;;;;;;;0.25;0.25;;;;;;;19.25;40.63;101041.03;5101847;28;20504;-82
2022/09/02 03:21:39;;;;;;;0.20;0.20;;;;;;;19.37;40.25;101036.78;5118830;28;20114;-81
2022/09/02 03:24:11;;;;;;;0.20;0.20;;;;;;;19.33;39.97;101044.09;5121690;28;20031;-81
2022/09/02 03:26:42;;;;;;;0.30;0.30;;;;;;;19.33;40.03;101034.31;5136655;28;20483;-80
2022/09/02 03:29:13;;;;;;;0.30;0.30;;;;;;;19.25;40.37;101035.72;5109220;29;20054;-81
2022/09/02 03:31:43;;;;;;;0.20;0.20;;;;;;;19.28;40.51;101035.53;5104534;28;20875;-81
2022/09/02 03:34:14;;;;;;;0.20;0.20;;;;;;;19.22;40.85;101035.88;5151870;28;20031;-81
2022/09/02 03:36:45;;;;;;;0.85;0.85;;;;;;;19.23;40.64;101037.59;5172715;28;20065;-81
2022/09/02 03:39:16;;;;;;;0.60;0.60;;;;;;;19.23;40.98;101030.50;5124836;28;20058;-81
2022/09/02 03:41:48;;;;;;;0.20;0.20;;;;;;;19.22;40.69;101030.56;5167626;28;20357;-81
2022/09/02 03:44:19;;;;;;;0.20;0.20;;;;;;;19.31;40.22;101033.56;5154604;28;20035;-81
2022/09/02 03:46:50;;;;;;;0.20;0.20;;;;;;;19.08;41.59;101024.25;5141161;28;20472;-81
2022/09/02 03:49:20;;;;;;;0.20;0.20;;;;;;;19.22;40.90;101027.91;5142032;28;20105;-81
2022/09/02 03:51:51;;;;;;;0.25;0.25;;;;;;;19.30;40.36;101030.97;5157958;28;20086;-81
2022/09/02 03:54:22;;;;;;;0.90;0.40;;;;;;;19.31;40.34;101030.00;5149315;28;20035;-81
2022/09/02 03:56:53;;;;;;;0.20;0.20;;;;;;;19.21;40.93;101026.22;5164668;28;20522;-81
2022/09/02 03:59:23;;;;;;;0.20;0.20;;;;;;;19.18;40.58;101022.78;5151814;28;20259;-81
2022/09/02 04:01:54;;;;;;;0.20;0.20;;;;;;;19.24;40.58;101020.69;5142383;28;20047;-81
2022/09/02 04:04:25;;;;;;;2.60;0.47;;;;;;;19.31;40.66;101020.25;5141021;28;20492;-80
2022/09/02 04:06:56;;;;;;;0.20;0.20;;;;;;;19.19;40.78;101011.19;5154712;28;20455;-80
2022/09/02 04:09:27;;;;;;;0.17;0.17;;;;;;;19.12;41.02;101015.16;5156491;28;20043;-80
2022/09/02 04:11:57;;;;;;;0.30;0.30;;;;;;;19.23;40.57;101017.19;5171879;28;20093;-80
2022/09/02 04:14:28;;;;;;;0.38;0.38;;;;;;;19.29;40.50;101015.97;5146623;28;20019;-80
2022/09/02 04:21:09;;;;;;;0.40;0.40;;;;;;;19.15;40.73;101016.78;5144825;28;20507;-80
2022/09/02 04:23:43;;;;;;;4.45;1.27;;;;;;;19.25;40.44;101019.75;5147537;28;20046;-79
2022/09/02 04:26:16;;;;;;;0.20;0.20;;;;;;;19.15;41.04;101014.97;5144524;28;20035;-80
2022/09/02 04:28:48;;;;;;;9.55;1.35;;;;;;;19.18;40.72;101012.13;5152652;28;20047;-80
2022/09/02 04:31:21;;;;;;;0.20;0.20;;;;;;;19.13;40.84;101008.88;5161147;28;20035;-80
2022/09/02 04:33:51;;;;;;;1.27;0.47;;;;;;;19.10;40.96;101011.72;5105876;28;20412;-80
2022/09/02 04:36:23;;;;;;;0.25;0.25;;;;;;;19.14;40.59;101012.41;5129072;28;20028;-80
2022/09/02 04:38:56;;;;;;;0.43;0.40;;;;;;;19.09;40.69;101010.00;5131319;28;20127;-80
2022/09/02 04:41:29;;;;;;;0.20;0.20;;;;;;;19.15;40.57;101006.97;5170831;28;20019;-80
2022/09/02 04:44:01;;;;;;;0.30;0.30;;;;;;;19.22;40.51;101014.59;5160839;28;20050;-80
2022/09/02 04:46:34;;;;;;;0.55;0.40;;;;;;;19.10;41.30;101013.50;5186838;28;20030;-80
2022/09/02 04:49:10;;;;;;;;;;;;;;;19.13;40.53;101016.84;5120197;28;20058;-79
2022/09/02 04:51:41;;;;;;;0.30;0.30;;;;;;;19.16;40.61;101011.38;5116523;28;19946;-79
2022/09/02 04:54:12;;;;;;;0.30;0.30;;;;;;;19.12;40.75;101016.94;5140586;28;20027;-80
2022/09/02 04:56:43;;;;;;;0.20;0.20;;;;;;;19.08;40.76;101020.75;5123047;28;20130;-80
2022/09/02 04:59:14;;;;;;;0.30;0.30;;;;;;;19.17;40.72;101010.41;5089991;29;20039;-81
2022/09/02 05:01:44;;;;;;;0.30;0.30;;;;;;;19.03;41.29;101015.69;5125059;28;20057;-80
2022/09/02 05:04:15;;;;;;;0.30;0.30;;;;;;;19.01;41.52;101020.25;5109201;29;20007;-80
2022/09/02 05:06:46;;;;;;;0.50;0.50;;;;;;;18.90;41.62;101014.63;5160016;28;20066;-80
2022/09/02 05:09:17;;;;;;;0.25;0.25;;;;;;;18.86;41.82;101014.84;5119091;28;20030;-80
2022/09/02 05:11:48;;;;;;;0.30;0.30;;;;;;;18.88;41.59;101018.25;5130920;28;20157;-80
2022/09/02 05:14:22;;;;;;;0.88;0.82;;;;;;;18.98;41.13;101007.09;5081946;29;20039;-79
2022/09/02 05:16:53;;;;;;;0.20;0.20;;;;;;;18.91;41.70;101011.91;5103289;28;20027;-82
2022/09/02 05:19:23;;;;;;;0.32;0.32;;;;;;;18.94;41.67;101010.91;5115774;28;20625;-81
2022/09/02 05:21:56;;;;;;;0.30;0.30;;;;;;;18.96;41.57;101014.34;5085037;28;20548;-82
2022/09/02 05:24:28;;;;;;;0.40;0.40;;;;;;;18.93;41.57;101019.81;5085459;29;20027;-81
2022/09/02 05:26:59;;;;;;;0.30;0.30;;;;;;;18.96;41.22;101009.88;5087493;28;20043;-81
2022/09/02 05:29:29;;;;;;;0.30;0.30;;;;;;;18.99;41.01;101008.81;5100358;29;20119;-81
2022/09/02 05:32:07;;;;;;;0.43;0.43;;;;;;;18.97;41.25;101014.25;5133638;28;20039;-81
2022/09/02 05:34:38;;;;;;;0.40;0.40;;;;;;;19.00;41.13;101014.06;5157784;28;20023;-81
2022/09/02 05:37:09;;;;;;;0.30;0.30;;;;;;;19.02;42.09;101003.34;5137680;28;20137;-81
2022/09/02 05:39:40;;;;;;;1.20;0.60;;;;;;;18.95;41.41;101009.97;5168625;28;20058;-81
2022/09/02 05:42:12;;;;;;;0.20;0.20;;;;;;;18.97;41.28;101016.03;5173306;28;20423;-81
2022/09/02 05:44:43;;;;;;;0.40;0.40;;;;;;;18.90;41.92;101014.63;5124047;28;20050;-81
2022/09/02 05:47:14;;;;;;;1.52;1.25;;;;;;;18.94;41.59;101005.59;5153563;28;20097;-81
2022/09/02 05:49:45;;;;;;;0.20;0.20;;;;;;;19.02;41.16;101014.81;5145481;28;20034;-81
2022/09/02 05:52:16;;;;;;;0.30;0.30;;;;;;;19.03;41.33;101015.69;5123122;28;20535;-81
2022/09/02 05:54:48;;;;;;;0.60;0.60;;;;;;;19.01;41.52;101020.25;5135077;28;20031;-81
2022/09/02 05:57:20;;;;;;;1.05;0.93;;;;;;;18.96;42.32;101014.34;5137293;28;20061;-81
2022/09/02 05:59:54;;;;;;;0.40;0.40;;;;;;;19.03;41.81;101016.53;5134479;28;20038;-81
2022/09/02 06:02:26;;;;;;;0.30;0.30;;;;;;;19.04;41.46;101017.41;5121776;28;20124;-81
2022/09/02 06:04:56;;;;;;;0.60;0.60;;;;;;;18.97;42.61;101018.69;5151389;28;20038;-81
2022/09/02 06:07:28;;;;;;;0.20;0.20;;;;;;;18.99;42.25;101015.03;5120242;28;20496;-81
2022/09/02 06:09:59;;;;;;;1.08;0.50;;;;;;;19.12;42.22;101015.16;5142946;28;20018;-81
2022/09/02 06:12:31;;;;;;;0.20;0.20;;;;;;;19.10;41.70;101013.50;5132379;28;20081;-81
2022/09/02 06:15:14;;;;;;;0.28;0.28;;;;;;;19.16;41.75;101008.69;5155638;28;20491;-81
2022/09/02 06:17:46;;;;;;;0.30;0.30;;;;;;;19.11;41.65;101017.88;5128027;28;20120;-80
2022/09/02 06:20:19;;;;;;;0.40;0.40;;;;;;;19.15;41.58;101014.97;5125030;28;20552;-81
2022/09/02 06:22:50;;;;;;;0.22;0.22;;;;;;;19.21;41.65;101013.75;5155334;28;20038;-81
2022/09/02 06:25:21;;;;;;;1.10;1.00;;;;;;;19.23;41.42;101016.31;5124158;28;20046;-81
2022/09/02 06:27:52;;;;;;;2.92;0.63;;;;;;;19.19;41.66;101011.19;5122980;28;20054;-81
2022/09/02 06:30:23;;;;;;;0.50;0.50;;;;;;;19.21;42.64;101011.09;5139615;28;20033;-81
2022/09/02 06:32:54;;;;;;;0.30;0.30;;;;;;;19.18;42.05;101011.25;5120835;28;21736;-82
2022/09/02 06:35:27;;;;;;;0.90;0.90;;;;;;;19.23;41.79;101005.69;5108213;28;20035;-82
2022/09/02 06:37:59;;;;;;;0.30;0.30;;;;;;;19.16;42.00;101016.69;5134228;28;20038;-82
2022/09/02 06:40:30;;;;;;;0.20;0.20;;;;;;;19.11;42.37;101010.78;5144665;28;20022;-82
2022/09/02 06:43:00;;;;;;;0.30;0.30;;;;;;;19.09;43.17;101009.16;5160534;28;20063;-82
2022/09/02 06:45:37;;;;;;;0.20;0.20;;;;;;;19.14;43.89;101007.94;5143799;28;20026;-84
2022/09/02 06:48:12;;;;;;;0.47;0.40;;;;;;;19.22;42.51;101009.28;5157604;28;20111;-84
2022/09/02 06:50:45;;;;;;;0.20;0.20;;;;;;;19.28;42.27;101008.94;5154723;28;20038;-84
2022/09/02 06:53:18;;;;;;;0.35;0.35;;;;;;;19.33;42.20;101013.03;5176124;28;20126;-83
2022/09/02 06:55:49;;;;;;;0.30;0.30;;;;;;;19.25;43.14;101014.44;5171592;28;20034;-83
2022/09/02 06:58:20;;;;;;;0.20;0.20;;;;;;;19.33;42.52;101014.81;5155097;28;20413;-83
2022/09/02 07:00:52;;;;;;;1.10;0.40;;;;;;;19.45;42.08;101011.44;5104759;28;20034;-83
2022/09/02 07:07:11;;;;;;;0.30;0.30;;;;;;;19.53;42.33;101018.13;5176501;28;20043;-81
2022/09/02 07:09:41;;;;;;;1.00;0.70;;;;;;;19.56;42.60;101009.94;5098316;29;20043;-81
2022/09/02 07:12:16;;;;;;;0.20;0.20;;;;;;;19.45;43.49;101003.47;5096982;29;20047;-82
2022/09/02 07:14:49;;;;;;;20.70;2.05;;;;;;;19.59;42.88;101001.78;5108841;29;20078;-81
2022/09/02 07:17:22;;;;;;;0.40;0.40;;;;;;;19.60;43.41;101003.47;5115264;28;20051;-81
2022/09/02 07:19:56;;;;;;;0.68;0.63;;;;;;;19.63;43.17;100998.81;5123172;28;20383;-80
2022/09/02 07:22:27;;;;;;;1.20;0.45;;;;;;;19.73;42.97;100991.13;5119715;28;20034;-82
2022/09/02 07:24:59;;;;;;;0.50;0.50;;;;;;;19.72;43.44;101000.06;5153927;28;20114;-80
2022/09/02 07:27:29;;;;;;;0.20;0.20;;;;;;;19.78;43.29;100990.84;5138584;28;20089;-81
2022/09/02 07:30:00;;;;;;;0.20;0.20;;;;;;;19.82;43.60;100993.22;5109020;29;20492;-81
2022/09/02 07:32:31;;;;;;;0.20;0.20;;;;;;;19.85;43.38;100986.88;5141051;28;20039;-81
2022/09/02 07:35:04;;;;;;;0.30;0.30;;;;;;;20.00;43.09;100982.41;5135702;28;20030;-79
2022/09/02 07:37:36;;;;;;;0.50;0.50;;;;;;;19.99;43.35;100978.03;5114412;28;20038;-80
2022/09/02 07:40:09;;;;;;;0.55;0.55;;;;;;;19.94;43.52;100988.13;5157604;28;20034;-80
2022/09/02 07:42:40;;;;;;;1.40;0.32;;;;;;;19.91;43.85;100985.66;5118003;28;20741;-79
2022/09/02 07:45:12;;;;;;;0.60;0.60;;;;;;;20.03;43.31;100984.91;5123890;28;20161;-80
2022/09/02 07:47:42;;;;;;;0.30;0.30;;;;;;;20.04;43.23;100989.25;5153613;28;20050;-79
2022/09/02 07:50:14;;;;;;;0.35;0.35;;;;;;;20.17;43.43;100988.47;5162362;28;20038;-80
2022/09/02 07:52:45;;;;;;;0.40;0.40;;;;;;;20.12;43.42;100988.78;5163633;28;20041;-79
2022/09/02 07:55:16;;;;;;;0.38;0.38;;;;;;;20.19;43.29;100992.75;5124407;29;20118;-79
2022/09/02 07:57:52;;;;;;;0.38;0.38;;;;;;;20.20;43.59;100981.16;5119252;28;20093;-81
2022/09/02 08:00:26;;;;;;;0.30;0.30;;;;;;;20.14;43.36;100986.88;5104391;28;20031;-80
2022/09/02 08:02:57;;;;;;;0.30;0.30;;;;;;;20.22;43.25;100984.59;5107753;29;20051;-80
2022/09/02 08:05:29;;;;;;;0.20;0.20;;;;;;;20.40;43.01;100974.53;5126998;28;20139;-80
2022/09/02 08:08:01;;;;;;;0.30;0.30;;;;;;;20.35;43.54;100979.31;5134591;28;20282;-81
2022/09/02 08:10:33;;;;;;;0.20;0.20;;;;;;;20.34;43.52;100982.06;5143099;28;20034;-80
2022/09/02 08:13:05;;;;;;;1.17;0.60;;;;;;;20.43;43.21;100982.34;5118622;28;20042;-81
2022/09/02 08:15:37;;;;;;;0.20;0.20;;;;;;;20.55;43.92;100979.81;5139005;28;20033;-80
2022/09/02 08:18:13;;;;;;;0.22;0.22;;;;;;;20.35;43.94;100984.66;5165391;28;20198;-80
2022/09/02 08:20:44;;;;;;;0.30;0.30;;;;;;;20.39;43.78;100982.66;5120808;28;20043;-80
2022/09/02 08:23:15;;;;;;;3.55;0.68;;;;;;;20.48;43.40;100975.84;5157914;28;20555;-80
2022/09/02 08:25:46;;;;;;;0.28;0.28;;;;;;;20.50;43.48;100977.47;5128535;28;20070;-81
2022/09/02 08:28:16;;;;;;;0.40;0.40;;;;;;;20.52;44.03;100980.03;5133787;28;20049;-79
2022/09/02 08:30:47;;;;;;;0.40;0.40;;;;;;;20.63;43.62;100976.66;5173152;28;20034;-81
2022/09/02 08:33:18;;;;;;;0.30;0.30;;;;;;;20.77;43.20;100973.13;5173412;28;20440;-81
2022/09/02 08:35:48;;;;;;;0.55;0.55;;;;;;;20.82;43.59;100979.88;5179024;28;20424;-82
2022/09/02 08:38:21;;;;;;;0.20;0.20;;;;;;;20.69;43.92;100982.47;5142784;28;20047;-80
2022/09/02 08:40:51;;;;;;;1.75;1.27;;;;;;;20.68;43.77;100980.75;5126828;28;20775;-81
2022/09/02 08:43:40;;;;;;;0.47;0.47;;;;;;;20.75;43.61;100974.09;5145765;28;20042;-82
2022/09/02 08:46:26;;;;;;;0.40;0.40;;;;;;;20.78;43.36;100974.84;5179348;28;20037;-81
2022/09/02 08:49:48;;;;;;;0.38;0.38;;;;;;;20.96;43.50;100972.75;5122300;28;20038;-81
2022/09/02 08:52:32;;;;;;;0.30;0.30;;;;;;;20.93;43.10;100973.81;5132811;28;20049;-80
2022/09/02 08:55:11;;;;;;;0.28;0.28;;;;;;;20.84;43.57;100969.94;5132919;28;20027;-79
2022/09/02 08:57:47;;;;;;;0.30;0.30;;;;;;;20.96;43.25;100978.09;5139273;28;20049;-79
2022/09/02 09:00:18;;;;;;;0.20;0.20;;;;;;;21.00;43.32;100974.25;5129014;28;20415;-78
2022/09/02 09:03:01;;;;;;;0.43;0.43;;;;;;;21.03;43.36;100966.03;5130906;28;20047;-81
2022/09/02 09:05:32;;;;;;;;;;;;;;;21.14;43.03;100967.97;5090269;29;20039;-81
2022/09/02 09:08:12;;;;;;;0.22;0.22;;;;;;;21.07;43.17;100965.75;5108941;28;19981;-80
2022/09/02 09:10:55;;;;;;;0.20;0.20;;;;;;;21.12;43.03;100964.56;5176193;28;20135;-79
2022/09/02 09:14:04;;;;;;;0.20;0.20;;;;;;;21.21;42.76;100959.47;5123013;28;20106;-80
2022/09/02 09:16:43;;;;;;;0.30;0.30;;;;;;;21.21;43.16;100955.94;5170118;28;20035;-80
2022/09/02 09:19:19;;;;;;;0.20;0.20;;;;;;;21.33;42.76;100959.56;5181679;28;20039;-80
2022/09/02 09:21:53;;;;;;;0.35;0.35;;;;;;;21.31;42.72;100951.69;5149021;28;20311;-79
2022/09/02 09:24:37;;;;;;;0.35;0.35;;;;;;;21.36;43.02;100954.03;5127885;28;20089;-80
2022/09/02 09:27:14;;;;;;;1.55;0.90;;;;;;;21.48;42.50;100947.00;5164905;28;20127;-80
2022/09/02 09:29:44;;;;;;;0.20;0.20;;;;;;;21.45;42.77;100940.06;5160259;28;20038;-81
2022/09/02 09:32:39;;;;;;;0.60;0.60;;;;;;;21.60;43.10;100929.28;5121446;28;20043;-81
2022/09/02 09:35:21;;;;;;;1.02;0.45;;;;;;;21.68;42.56;100933.13;5190761;28;20029;-81
2022/09/02 09:37:53;;;;;;;0.52;0.52;;;;;;;21.72;42.84;100933.78;5170370;28;20047;-80
2022/09/02 09:40:30;;;;;;;0.43;0.43;;;;;;;21.70;42.15;100925.84;5113414;28;20109;-81
2022/09/02 09:43:12;;;;;;;0.40;0.40;;;;;;;21.75;42.17;100927.34;5137193;28;20047;-80
2022/09/02 09:45:48;;;;;;;0.22;0.22;;;;;;;21.77;42.32;100920.09;5147452;28;20082;-79
2022/09/02 09:48:29;;;;;;;0.57;0.57;;;;;;;21.81;42.52;100922.44;5150689;28;20043;-81
2022/09/02 09:51:10;;;;;;;0.20;0.20;;;;;;;21.83;42.25;100908.97;5130054;28;20121;-81
2022/09/02 09:53:42;;;;;;;0.20;0.20;;;;;;;21.93;42.14;100912.69;5110428;28;20035;-82
2022/09/02 09:56:13;;;;;;;0.25;0.25;;;;;;;22.07;42.20;100910.81;5121216;28;20067;-81
2022/09/02 09:58:46;;;;;;;0.43;0.43;;;;;;;22.02;41.84;100914.66;5150728;28;20133;-82
2022/09/02 10:01:50;;;;;;;0.20;0.20;;;;;;;22.15;40.95;100911.13;5124507;28;20038;-82
2022/09/02 10:04:32;;;;;;;0.47;0.47;;;;;;;22.22;41.06;100916.88;5092835;28;20051;-83
2022/09/02 10:07:05;;;;;;;0.45;0.45;;;;;;;22.21;40.68;100901.81;5112709;28;20071;-82
2022/09/02 10:09:48;;;;;;;0.20;0.20;;;;;;;22.29;40.14;100910.94;5124717;28;20030;-82
2022/09/02 10:12:33;;;;;;;0.40;0.40;;;;;;;22.33;40.13;100912.44;5120622;28;20092;-82
2022/09/02 10:15:14;;;;;;;0.28;0.28;;;;;;;22.46;39.24;100907.06;5150026;28;20087;-81
2022/09/02 10:18:40;;;;;;;0.38;0.38;;;;;;;22.50;39.88;100901.47;5144828;28;20054;-83
2022/09/02 10:21:26;;;;;;;0.32;0.32;;;;;;;22.64;38.49;100899.47;5081655;29;20031;-83
2022/09/02 10:24:12;;;;;;;0.20;0.20;;;;;;;22.60;39.58;100903.34;5087444;28;20074;-86
2022/09/02 10:26:48;;;;;;;0.22;0.22;;;;;;;22.64;38.72;100896.81;5137886;28;20022;-81
2022/09/02 10:29:42;;;;;;;0.30;0.30;;;;;;;22.72;38.14;100892.69;5150193;28;20396;-81
2022/09/02 10:32:47;;;;;;;0.30;0.30;;;;;;;22.73;38.15;100886.38;5125790;28;20047;-82
2022/09/02 10:35:40;;;;;;;0.43;0.40;;;;;;;22.80;38.24;100882.25;5180913;28;20047;-81
2022/09/02 10:38:15;;;;;;;0.20;0.20;;;;;;;22.88;37.68;100890.56;5147086;28;20098;-82
2022/09/02 10:40:55;;;;;;;0.20;0.20;;;;;;;22.95;37.15;100878.41;5155672;28;20495;-81
2022/09/02 10:43:43;;;;;;;0.20;0.20;;;;;;;22.94;36.50;100889.25;5150096;28;20054;-82
2022/09/02 10:46:19;;;;;;;0.50;0.50;;;;;;;22.98;37.31;100879.16;5188690;28;20479;-81
2022/09/02 10:49:00;;;;;;;0.20;0.20;;;;;;;23.10;36.46;100878.19;5119871;28;20118;-82
2022/09/02 10:51:39;;;;;;;0.35;0.35;;;;;;;23.14;36.15;100868.97;5147545;28;20055;-81
2022/09/02 10:54:25;;;;;;;0.20;0.20;;;;;;;23.19;36.42;100877.50;5149967;28;20556;-81
2022/09/02 10:57:10;;;;;;;0.30;0.30;;;;;;;23.18;34.89;100872.28;5149634;28;20051;-81
2022/09/02 10:59:50;;;;;;;0.57;0.57;;;;;;;23.17;36.54;100863.38;5128697;28;20467;-81
2022/09/02 11:02:30;;;;;;;0.40;0.40;;;;;;;23.32;36.20;100874.72;5148246;28;20051;-81
2022/09/02 11:05:47;;;;;;;0.22;0.22;;;;;;;23.39;35.38;100861.72;5163120;28;20134;-82
2022/09/02 11:08:39;;;;;;;0.30;0.30;;;;;;;23.38;36.76;100857.31;5113408;28;20047;-80
2022/09/02 11:11:20;;;;;;;0.30;0.30;;;;;;;23.46;35.99;100846.84;5142453;28;20045;-80
2022/09/02 11:14:15;;;;;;;0.22;0.22;;;;;;;23.55;35.04;100847.97;5095809;28;20061;-80
2022/09/02 11:17:01;;;;;;;0.30;0.30;;;;;;;23.52;35.97;100848.19;5153341;28;20031;-80
2022/09/02 11:19:38;;;;;;;0.30;0.30;;;;;;;23.61;35.15;100843.91;5156583;28;20046;-80
2022/09/02 11:22:21;;;;;;;0.63;0.63;;;;;;;23.67;34.59;100844.28;5151576;28;20049;-80
2022/09/02 11:25:15;;;;;;;0.50;0.50;;;;;;;23.67;34.20;100843.44;5161110;28;20027;-80
2022/09/02 11:27:58;;;;;;;0.20;0.20;;;;;;;23.71;34.38;100839.53;5146992;28;20078;-81
2022/09/02 11:30:42;;;;;;;;;;;;;;;23.87;33.99;100831.09;5120375;28;20027;-81
2022/09/02 11:33:27;;;;;;;0.30;0.30;;;;;;;24.04;33.95;100829.72;5119122;28;19919;-81
2022/09/02 11:35:58;;;;;;;0.30;0.30;;;;;;;24.05;34.30;100826.91;5106143;29;20067;-81
2022/09/02 11:38:35;;;;;;;0.20;0.20;;;;;;;23.98;32.83;100816.84;5146662;28;20038;-81
2022/09/02 11:41:27;;;;;;;0.20;0.20;;;;;;;24.07;32.65;100823.25;5152983;28;20455;-81
2022/09/02 11:44:23;;;;;;;0.13;0.13;;;;;;;24.07;32.96;100818.78;5122930;28;20039;-81
2022/09/02 11:47:08;;;;;;;0.32;0.30;;;;;;;24.15;31.93;100808.25;5157451;28;20035;-81
2022/09/02 11:49:45;;;;;;;0.50;0.50;;;;;;;24.20;32.93;100813.25;5122259;28;20039;-81
2022/09/02 11:52:27;;;;;;;0.22;0.22;;;;;;;24.35;30.70;100811.94;5104313;28;20038;-81
2022/09/02 11:55:23;;;;;;;0.20;0.20;;;;;;;24.45;31.14;100812.00;5119881;28;20023;-81
2022/09/02 11:57:56;;;;;;;0.20;0.20;;;;;;;24.45;31.37;100803.97;5145561;28;20039;-80
2022/09/02 12:00:35;;;;;;;;;;;;;;;24.42;32.17;100801.53;5154605;28;20691;-81
2022/09/02 12:03:06;;;;;;;0.32;0.32;;;;;;;24.59;31.89;100796.56;5143818;28;19925;-81
2022/09/02 12:05:39;;;;;;;0.20;0.20;;;;;;;24.81;31.09;100801.84;5156934;28;20036;-81
2022/09/02 12:08:26;;;;;;;0.30;0.30;;;;;;;24.85;31.61;100801.56;5117780;28;20043;-81
2022/09/02 12:11:00;;;;;;;0.25;0.25;;;;;;;24.83;29.15;100788.28;5135710;28;20062;-81
2022/09/02 12:13:37;;;;;;;0.75;0.75;;;;;;;24.81;30.62;100791.13;5127987;28;20433;-81